createdAt,value
2023-02-23T00:00:59.003Z,7.19
2023-02-23T00:03:25.488Z,7.15
2023-02-23T00:05:51.888Z,7.12
2023-02-23T00:08:19.354Z,7.10
2023-02-23T00:10:45.777Z,7.10
2023-02-23T00:13:12.162Z,7.09
2023-02-23T00:15:38.582Z,7.06
2023-02-23T00:18:05.010Z,7.02
2023-02-23T00:20:31.442Z,7.00
2023-02-23T00:22:57.836Z,6.99
2023-02-23T00:25:24.587Z,7.00
2023-02-23T00:27:51.471Z,6.97
2023-02-23T00:30:18.479Z,6.99
2023-02-23T00:32:45.076Z,6.99
2023-02-23T00:35:11.559Z,7.01
2023-02-23T00:37:38.078Z,7.03
2023-02-23T00:40:05.081Z,7.03
2023-02-23T00:42:31.461Z,7.05
2023-02-23T00:44:57.874Z,7.04
2023-02-23T00:47:24.267Z,7.04
2023-02-23T00:49:50.685Z,7.04
2023-02-23T00:52:17.078Z,7.03
2023-02-23T00:54:43.552Z,7.02
2023-02-23T00:57:09.952Z,7.00
2023-02-23T00:59:36.410Z,7.01
2023-02-23T01:02:02.858Z,6.98
2023-02-23T01:04:29.252Z,6.98
2023-02-23T01:06:55.669Z,6.98
2023-02-23T01:09:22.159Z,6.97
2023-02-23T01:11:48.577Z,6.97
2023-02-23T01:14:14.987Z,6.97
2023-02-23T01:16:41.430Z,6.97
2023-02-23T01:19:07.813Z,6.99
2023-02-23T01:21:36.173Z,6.99
2023-02-23T01:24:02.744Z,6.99
2023-02-23T01:26:33.505Z,6.99
2023-02-23T01:29:02.170Z,6.97
2023-02-23T01:31:28.964Z,6.97
2023-02-23T01:33:56.432Z,6.95
2023-02-23T01:36:22.888Z,6.96
2023-02-23T01:38:49.375Z,6.96
2023-02-23T01:41:16.901Z,6.97
2023-02-23T01:44:06.325Z,6.99
2023-02-23T01:46:37.197Z,7.02
2023-02-23T01:49:03.626Z,6.98
2023-02-23T01:51:31.899Z,6.96
2023-02-23T01:54:09.994Z,6.92
2023-02-23T01:56:41.046Z,6.92
2023-02-23T01:59:07.459Z,6.93
2023-02-23T02:01:33.847Z,6.97
2023-02-23T02:04:01.869Z,6.99
2023-02-23T02:06:28.267Z,7.01
2023-02-23T02:08:56.703Z,7.03
2023-02-23T02:11:23.738Z,7.04
2023-02-23T02:13:50.146Z,7.04
2023-02-23T02:16:28.297Z,7.05
2023-02-23T02:19:12.944Z,7.06
2023-02-23T02:22:00.002Z,7.09
2023-02-23T02:24:51.132Z,7.10
2023-02-23T02:27:32.584Z,7.08
2023-02-23T02:30:22.604Z,7.09
2023-02-23T02:32:56.027Z,7.09
2023-02-23T02:35:42.120Z,7.10
2023-02-23T02:38:26.075Z,7.10
2023-02-23T02:40:53.806Z,7.08
2023-02-23T02:43:34.955Z,7.05
2023-02-23T02:46:10.677Z,7.03
2023-02-23T02:48:39.989Z,7.00
2023-02-23T02:51:16.488Z,6.97
2023-02-23T02:54:09.692Z,6.92
2023-02-23T02:56:40.679Z,6.89
2023-02-23T02:59:11.945Z,6.87
2023-02-23T03:01:38.373Z,6.85
2023-02-23T03:04:22.538Z,6.82
2023-02-23T03:06:59.505Z,6.86
2023-02-23T03:09:51.881Z,6.80
2023-02-23T03:12:24.241Z,6.77
2023-02-23T03:15:03.675Z,6.76
2023-02-23T03:17:33.068Z,6.71
2023-02-23T03:20:04.431Z,6.68
2023-02-23T03:22:38.459Z,6.63
2023-02-23T03:25:12.237Z,6.64
2023-02-23T03:27:46.781Z,6.66
2023-02-23T03:30:31.622Z,6.65
2023-02-23T03:33:00.132Z,6.62
2023-02-23T03:35:40.475Z,6.60
2023-02-23T03:38:35.190Z,6.57
2023-02-23T03:41:01.585Z,6.55
2023-02-23T03:43:32.465Z,6.53
2023-02-23T03:45:58.923Z,6.53
2023-02-23T03:48:25.448Z,6.53
2023-02-23T03:50:56.724Z,6.56
2023-02-23T03:53:27.012Z,6.56
2023-02-23T03:55:54.600Z,6.55
2023-02-23T03:58:28.148Z,6.55
2023-02-23T04:00:54.551Z,6.54
2023-02-23T04:03:21.001Z,6.60
2023-02-23T04:05:47.408Z,6.59
2023-02-23T04:08:14.788Z,6.56
2023-02-23T04:10:47.749Z,6.59
2023-02-23T04:13:16.446Z,6.57
2023-02-23T04:16:18.211Z,6.59
2023-02-23T04:18:44.635Z,6.59
2023-02-23T04:21:11.063Z,6.64
2023-02-23T04:23:37.785Z,6.63
2023-02-23T04:26:04.276Z,6.68
2023-02-23T04:28:30.697Z,6.68
2023-02-23T04:30:57.123Z,6.71
2023-02-23T04:33:23.677Z,6.71
2023-02-23T04:35:50.532Z,6.70
2023-02-23T04:38:16.931Z,6.66
2023-02-23T04:40:43.361Z,6.64
2023-02-23T04:43:12.166Z,6.66
2023-02-23T04:45:38.631Z,6.69
2023-02-23T04:48:05.405Z,6.70
2023-02-23T04:50:32.689Z,6.68
2023-02-23T04:52:59.214Z,6.67
2023-02-23T04:55:25.942Z,6.64
2023-02-23T04:57:53.130Z,6.62
2023-02-23T05:00:19.652Z,6.58
2023-02-23T05:02:46.063Z,6.60
2023-02-23T05:05:12.617Z,6.63
2023-02-23T05:07:39.080Z,6.60
2023-02-23T05:10:06.486Z,6.58
2023-02-23T05:12:32.908Z,6.60
2023-02-23T05:14:59.369Z,6.67
2023-02-23T05:17:25.809Z,6.69
2023-02-23T05:19:52.235Z,6.73
2023-02-23T05:22:18.637Z,6.77
2023-02-23T05:24:45.040Z,6.77
2023-02-23T05:27:11.526Z,6.75
2023-02-23T05:29:38.028Z,6.72
2023-02-23T05:32:09.410Z,6.69
2023-02-23T05:34:35.898Z,6.75
2023-02-23T05:37:02.341Z,6.76
2023-02-23T05:39:28.811Z,6.80
2023-02-23T05:41:55.273Z,6.86
2023-02-23T05:44:21.663Z,6.88
2023-02-23T05:46:48.083Z,6.94
2023-02-23T05:49:14.488Z,7.01
2023-02-23T05:51:40.895Z,7.03
2023-02-23T05:54:07.278Z,7.02
2023-02-23T05:56:33.730Z,7.01
2023-02-23T05:59:00.118Z,7.01
2023-02-23T06:01:27.141Z,7.01
2023-02-23T06:03:53.671Z,7.01
2023-02-23T06:06:20.122Z,6.99
2023-02-23T06:08:46.702Z,6.98
2023-02-23T06:11:13.121Z,6.99
2023-02-23T06:13:39.521Z,7.01
2023-02-23T06:16:06.570Z,7.01
2023-02-23T06:18:33.034Z,7.06
2023-02-23T06:21:00.341Z,7.08
2023-02-23T06:23:27.961Z,7.13
2023-02-23T06:25:54.340Z,7.13
2023-02-23T06:28:20.748Z,7.12
2023-02-23T06:30:47.166Z,7.08
2023-02-23T06:33:13.629Z,7.07
2023-02-23T06:35:40.043Z,7.07
2023-02-23T06:38:06.519Z,7.05
2023-02-23T06:40:33.206Z,7.09
2023-02-23T06:42:59.613Z,7.06
2023-02-23T06:45:26.273Z,7.08
2023-02-23T06:47:52.683Z,7.09
2023-02-23T06:50:19.205Z,7.04
2023-02-23T06:52:45.625Z,7.06
2023-02-23T06:55:12.021Z,7.04
2023-02-23T06:57:38.441Z,7.07
2023-02-23T07:00:05.243Z,7.10
2023-02-23T07:02:31.675Z,7.13
2023-02-23T07:04:58.074Z,7.13
2023-02-23T07:07:24.589Z,7.15
2023-02-23T07:09:51.142Z,7.19
2023-02-23T07:12:17.577Z,7.15
2023-02-23T07:14:43.972Z,7.15
2023-02-23T07:17:12.505Z,7.19
2023-02-23T07:19:39.101Z,7.18
2023-02-23T07:22:05.487Z,7.23
2023-02-23T07:24:32.077Z,7.26
2023-02-23T07:26:58.485Z,7.29
2023-02-23T07:29:24.910Z,7.30
2023-02-23T07:31:51.473Z,7.30
2023-02-23T07:34:17.905Z,7.30
2023-02-23T07:36:44.376Z,7.28
2023-02-23T07:39:10.810Z,7.31
2023-02-23T07:41:37.197Z,7.35
2023-02-23T07:44:03.684Z,7.27
2023-02-23T07:46:30.087Z,7.28
2023-02-23T07:48:56.537Z,7.27
2023-02-23T07:51:22.958Z,7.27
2023-02-23T07:53:49.443Z,7.27
2023-02-23T07:56:15.904Z,7.28
2023-02-23T07:58:42.926Z,7.30
2023-02-23T08:01:11.395Z,7.26
2023-02-23T08:03:38.265Z,7.22
2023-02-23T08:06:05.369Z,7.23
2023-02-23T08:08:33.065Z,7.22
2023-02-23T08:11:04.552Z,7.19
2023-02-23T08:13:32.722Z,7.20
2023-02-23T08:16:01.124Z,7.23
2023-02-23T08:18:27.722Z,7.26
2023-02-23T08:21:03.918Z,7.29
2023-02-23T08:23:31.072Z,7.31
2023-02-23T08:25:57.575Z,7.39
2023-02-23T08:28:23.992Z,7.35
2023-02-23T08:30:50.475Z,7.33
2023-02-23T08:33:16.973Z,7.33
2023-02-23T08:35:45.500Z,7.28
2023-02-23T08:38:13.145Z,7.26
2023-02-23T08:40:42.570Z,7.27
2023-02-23T08:43:10.503Z,7.26
2023-02-23T08:45:37.478Z,7.24
2023-02-23T08:48:04.060Z,7.21
2023-02-23T08:50:30.616Z,7.25
2023-02-23T08:52:57.020Z,7.23
2023-02-23T08:55:23.465Z,7.18
2023-02-23T08:57:49.930Z,7.17
2023-02-23T09:00:16.962Z,7.18
2023-02-23T09:02:43.904Z,7.11
2023-02-23T09:05:12.054Z,7.09
2023-02-23T09:07:38.980Z,7.08
2023-02-23T09:10:05.849Z,7.08
2023-02-23T09:12:32.242Z,7.08
2023-02-23T09:14:58.662Z,7.08
2023-02-23T09:17:25.054Z,7.11
2023-02-23T09:19:51.531Z,7.13
2023-02-23T09:22:17.988Z,7.11
2023-02-23T09:24:44.774Z,7.10
2023-02-23T09:27:11.178Z,7.11
2023-02-23T09:29:37.633Z,7.12
2023-02-23T09:32:04.469Z,7.04
2023-02-23T09:34:30.951Z,7.03
2023-02-23T09:36:57.364Z,7.02
2023-02-23T09:39:36.897Z,7.00
2023-02-23T09:42:12.688Z,7.01
2023-02-23T09:44:48.786Z,7.06
2023-02-23T09:47:37.241Z,7.09
2023-02-23T09:50:05.369Z,7.06
2023-02-23T09:52:42.599Z,7.08
2023-02-23T09:55:11.145Z,7.09
2023-02-23T09:57:39.469Z,7.08
2023-02-23T10:00:34.100Z,7.09
2023-02-23T10:03:06.680Z,7.06
2023-02-23T10:05:34.289Z,7.04
2023-02-23T10:08:03.556Z,7.05
2023-02-23T10:10:56.320Z,7.08
2023-02-23T10:13:38.629Z,7.03
2023-02-23T10:16:30.229Z,7.07
2023-02-23T10:19:18.753Z,7.13
2023-02-23T10:21:48.825Z,7.17
2023-02-23T10:24:38.609Z,7.14
2023-02-23T10:27:16.566Z,7.13
2023-02-23T10:29:51.741Z,7.08
2023-02-23T10:32:19.863Z,7.06
2023-02-23T10:34:46.462Z,7.03
2023-02-23T10:37:18.705Z,7.05
2023-02-23T10:39:45.127Z,7.04
2023-02-23T10:42:14.745Z,6.95
2023-02-23T10:44:45.449Z,6.92
2023-02-23T10:47:14.983Z,6.86
2023-02-23T10:49:47.856Z,6.88
2023-02-23T10:52:22.756Z,6.91
2023-02-23T10:54:52.474Z,6.87
2023-02-23T10:57:19.750Z,6.83
2023-02-23T11:00:18.491Z,6.78
2023-02-23T11:02:44.942Z,6.75
2023-02-23T11:05:29.698Z,6.81
2023-02-23T11:08:25.259Z,6.91
2023-02-23T11:11:06.697Z,6.96
2023-02-23T11:13:36.048Z,7.06
2023-02-23T11:16:26.920Z,7.15
2023-02-23T11:18:57.045Z,7.31
2023-02-23T11:21:32.961Z,7.50
2023-02-23T11:24:21.380Z,7.58
2023-02-23T11:26:48.922Z,7.68
2023-02-23T11:29:38.068Z,7.75
2023-02-23T11:32:37.268Z,7.80
2023-02-23T11:35:14.657Z,7.87
2023-02-23T11:37:41.077Z,7.94
2023-02-23T11:40:21.006Z,7.92
2023-02-23T11:42:58.339Z,7.91
2023-02-23T11:45:26.173Z,7.86
2023-02-23T11:47:54.172Z,7.80
2023-02-23T11:50:31.558Z,7.73
2023-02-23T11:53:00.135Z,7.72
2023-02-23T11:55:26.587Z,7.72
2023-02-23T11:57:53.094Z,7.78
2023-02-23T12:00:25.094Z,7.85
2023-02-23T12:02:58.910Z,7.83
2023-02-23T12:05:29.942Z,7.81
2023-02-23T12:08:06.719Z,7.75
2023-02-23T12:10:44.308Z,7.72
2023-02-23T12:13:40.685Z,7.64
2023-02-23T12:16:13.051Z,7.65
2023-02-23T12:19:00.540Z,7.67
2023-02-23T12:21:32.906Z,7.71
2023-02-23T12:24:12.398Z,7.67
2023-02-23T12:26:48.956Z,7.72
2023-02-23T12:29:50.626Z,7.64
2023-02-23T12:32:37.319Z,7.68
2023-02-23T12:35:14.552Z,7.59
2023-02-23T12:37:43.142Z,7.57
2023-02-23T12:40:24.627Z,7.53
2023-02-23T12:43:00.801Z,7.57
2023-02-23T12:45:44.062Z,7.52
2023-02-23T12:48:35.676Z,7.57
2023-02-23T12:51:04.165Z,7.56
2023-02-23T12:53:41.096Z,7.58
2023-02-23T12:56:33.842Z,7.56
2023-02-23T12:59:16.911Z,7.56
2023-02-23T13:01:48.227Z,7.61
2023-02-23T13:04:39.521Z,7.66
2023-02-23T13:07:21.656Z,7.59
2023-02-23T13:10:13.752Z,7.57
2023-02-23T13:12:57.491Z,7.61
2023-02-23T13:15:45.131Z,7.59
2023-02-23T13:18:31.897Z,7.59
2023-02-23T13:21:03.585Z,7.59
2023-02-23T13:23:45.069Z,7.59
2023-02-23T13:26:32.687Z,7.58
2023-02-23T13:29:20.482Z,7.56
2023-02-23T13:31:47.101Z,7.61
2023-02-23T13:34:35.408Z,7.60
2023-02-23T13:37:05.284Z,7.61
2023-02-23T13:39:46.345Z,7.60
2023-02-23T13:42:48.746Z,7.63
2023-02-23T13:45:39.209Z,7.72
2023-02-23T13:48:25.415Z,7.72
2023-02-23T13:51:00.520Z,7.77
2023-02-23T13:53:32.815Z,7.77
2023-02-23T13:56:00.973Z,7.74
2023-02-23T13:58:29.796Z,7.74
2023-02-23T14:01:10.830Z,7.79
2023-02-23T14:03:43.519Z,7.70
2023-02-23T14:06:12.319Z,7.64
2023-02-23T14:08:38.762Z,7.69
2023-02-23T14:11:05.554Z,7.65
2023-02-23T14:13:42.395Z,7.62
2023-02-23T14:16:19.459Z,7.71
2023-02-23T14:19:11.290Z,7.70
2023-02-23T14:21:43.364Z,7.72
2023-02-23T14:24:17.012Z,7.72
2023-02-23T14:27:04.440Z,7.70
2023-02-23T14:29:31.097Z,7.68
2023-02-23T14:32:17.061Z,7.73
2023-02-23T14:34:50.600Z,7.76
2023-02-23T14:37:26.486Z,7.75
2023-02-23T14:40:00.167Z,7.75
2023-02-23T14:42:27.691Z,7.78
2023-02-23T14:44:54.399Z,7.73
2023-02-23T14:47:22.393Z,7.72
2023-02-23T14:49:55.975Z,7.68
2023-02-23T14:52:27.862Z,7.71
2023-02-23T14:55:12.441Z,7.80
2023-02-23T14:57:40.963Z,7.82
2023-02-23T15:00:29.160Z,7.79
2023-02-23T15:03:00.314Z,7.81
2023-02-23T15:05:32.049Z,7.82
2023-02-23T15:07:59.977Z,7.81
2023-02-23T15:10:46.660Z,7.84
2023-02-23T15:13:19.083Z,7.85
2023-02-23T15:15:45.655Z,7.85
2023-02-23T15:18:19.800Z,7.78
2023-02-23T15:20:47.109Z,7.82
2023-02-23T15:23:17.075Z,7.87
2023-02-23T15:25:43.498Z,7.82
2023-02-23T15:28:28.222Z,7.78
2023-02-23T15:30:55.960Z,7.70
2023-02-23T15:33:22.560Z,7.61
2023-02-23T15:36:02.575Z,7.51
2023-02-23T15:38:45.723Z,7.50
2023-02-23T15:41:25.700Z,7.48
2023-02-23T15:43:52.190Z,7.43
2023-02-23T15:46:22.885Z,7.40
2023-02-23T15:48:49.407Z,7.33
2023-02-23T15:51:38.194Z,7.29
2023-02-23T15:54:32.646Z,7.24
2023-02-23T15:57:03.614Z,7.15
2023-02-23T15:59:34.950Z,7.11
2023-02-23T16:02:01.627Z,7.15
2023-02-23T16:04:32.376Z,7.14
2023-02-23T16:07:23.214Z,7.09
2023-02-23T16:09:53.450Z,6.99
2023-02-23T16:12:22.521Z,6.98
2023-02-23T16:14:53.422Z,7.05
2023-02-23T16:17:41.710Z,7.00
2023-02-23T16:20:32.437Z,6.89
2023-02-23T16:22:58.837Z,6.88
2023-02-23T16:25:26.096Z,6.82
2023-02-23T16:28:02.693Z,6.83
2023-02-23T16:30:32.307Z,6.83
2023-02-23T16:33:21.163Z,6.73
2023-02-23T16:35:49.843Z,6.76
2023-02-23T16:38:33.549Z,6.66
2023-02-23T16:40:59.944Z,6.63
2023-02-23T16:43:26.433Z,6.56
2023-02-23T16:45:53.047Z,6.51
2023-02-23T16:48:19.512Z,6.50
2023-02-23T16:50:45.909Z,6.43
2023-02-23T16:53:12.676Z,6.37
2023-02-23T16:55:48.891Z,6.38
2023-02-23T16:58:16.821Z,6.26
2023-02-23T17:00:43.271Z,6.20
2023-02-23T17:03:27.223Z,6.19
2023-02-23T17:05:53.822Z,6.12
2023-02-23T17:08:20.242Z,6.09
2023-02-23T17:10:49.039Z,6.12
2023-02-23T17:13:26.039Z,6.05
2023-02-23T17:15:53.936Z,6.03
2023-02-23T17:18:21.366Z,5.98
2023-02-23T17:20:47.785Z,6.02
2023-02-23T17:23:14.220Z,5.96
2023-02-23T17:25:40.909Z,5.89
2023-02-23T17:28:07.328Z,5.89
2023-02-23T17:30:34.171Z,5.89
2023-02-23T17:33:00.736Z,5.89
2023-02-23T17:35:27.368Z,5.87
2023-02-23T17:37:53.858Z,5.90
2023-02-23T17:40:21.969Z,5.83
2023-02-23T17:42:48.348Z,5.84
2023-02-23T17:45:14.780Z,5.79
2023-02-23T17:47:41.167Z,5.73
2023-02-23T17:50:07.950Z,5.69
2023-02-23T17:52:34.383Z,5.71
2023-02-23T17:55:00.821Z,5.66
2023-02-23T17:57:27.217Z,5.61
2023-02-23T17:59:53.650Z,5.53
2023-02-23T18:02:20.489Z,5.48
2023-02-23T18:04:47.800Z,5.54
2023-02-23T18:07:14.275Z,5.47
2023-02-23T18:09:40.725Z,5.39
2023-02-23T18:12:07.760Z,5.28
2023-02-23T18:14:34.146Z,5.25
2023-02-23T18:17:00.693Z,5.21
2023-02-23T18:19:27.296Z,5.14
2023-02-23T18:21:53.778Z,5.25
2023-02-23T18:24:20.183Z,5.25
2023-02-23T18:26:46.588Z,5.19
2023-02-23T18:29:13.012Z,5.14
2023-02-23T18:31:39.528Z,5.12
2023-02-23T18:34:08.593Z,5.09
2023-02-23T18:36:37.984Z,5.10
2023-02-23T18:39:06.596Z,5.13
2023-02-23T18:41:33.049Z,5.09
2023-02-23T18:44:04.620Z,5.02
2023-02-23T18:46:31.122Z,4.97
2023-02-23T18:48:57.567Z,4.84
2023-02-23T18:51:24.154Z,4.72
2023-02-23T18:53:50.669Z,4.70
2023-02-23T18:56:18.967Z,4.64
2023-02-23T18:58:45.745Z,4.62
2023-02-23T19:01:13.427Z,4.54
2023-02-23T19:03:39.881Z,4.60
2023-02-23T19:06:09.222Z,4.46
2023-02-23T19:08:35.652Z,4.46
2023-02-23T19:11:02.130Z,4.32
2023-02-23T19:13:29.071Z,4.20
2023-02-23T19:15:55.520Z,4.24
2023-02-23T19:18:22.027Z,4.24
2023-02-23T19:20:48.948Z,4.20
2023-02-23T19:23:15.408Z,4.13
2023-02-23T19:25:41.813Z,4.11
2023-02-23T19:28:08.275Z,4.23
2023-02-23T19:30:34.683Z,4.24
2023-02-23T19:33:01.459Z,4.22
2023-02-23T19:35:28.009Z,4.19
2023-02-23T19:37:56.777Z,4.11
2023-02-23T19:40:23.342Z,3.99
2023-02-23T19:42:50.468Z,3.95
2023-02-23T19:45:17.700Z,3.91
2023-02-23T19:47:45.065Z,3.82
2023-02-23T19:50:14.248Z,3.78
2023-02-23T19:52:41.898Z,3.81
2023-02-23T19:55:10.299Z,3.72
2023-02-23T19:57:36.916Z,3.66
2023-02-23T20:00:05.508Z,3.66
2023-02-23T20:02:32.201Z,3.65
2023-02-23T20:04:58.767Z,3.64
2023-02-23T20:07:25.226Z,3.59
2023-02-23T20:09:51.691Z,3.56
2023-02-23T20:12:19.541Z,3.63
2023-02-23T20:14:45.980Z,3.59
2023-02-23T20:17:12.728Z,3.45
2023-02-23T20:19:39.159Z,3.50
2023-02-23T20:22:05.615Z,3.50
2023-02-23T20:24:32.141Z,3.52
2023-02-23T20:26:58.551Z,3.61
2023-02-23T20:29:24.977Z,3.60
2023-02-23T20:31:51.549Z,3.71
2023-02-23T20:34:21.491Z,3.76
2023-02-23T20:36:49.188Z,3.75
2023-02-23T20:39:15.614Z,3.71
2023-02-23T20:41:43.485Z,3.78
2023-02-23T20:44:11.381Z,3.84
2023-02-23T20:46:38.689Z,3.88
2023-02-23T20:49:05.145Z,3.89
2023-02-23T20:51:31.537Z,3.88
2023-02-23T20:53:57.981Z,3.96
2023-02-23T20:56:24.381Z,3.95
2023-02-23T20:58:50.764Z,3.93
2023-02-23T21:01:18.962Z,3.90
2023-02-23T21:03:45.765Z,3.96
2023-02-23T21:06:12.515Z,3.95
2023-02-23T21:08:39.109Z,3.97
2023-02-23T21:11:06.780Z,4.06
2023-02-23T21:13:33.262Z,4.05
2023-02-23T21:15:59.719Z,4.07
2023-02-23T21:18:27.274Z,4.05
2023-02-23T21:20:54.130Z,4.03
2023-02-23T21:23:20.586Z,4.06
2023-02-23T21:25:47.219Z,4.09
2023-02-23T21:28:18.178Z,4.14
2023-02-23T21:30:45.120Z,4.18
2023-02-23T21:33:11.549Z,4.21
2023-02-23T21:35:37.958Z,4.21
2023-02-23T21:38:04.518Z,4.24
2023-02-23T21:40:30.957Z,4.24
2023-02-23T21:42:57.344Z,4.30
2023-02-23T21:45:23.754Z,4.28
2023-02-23T21:47:50.168Z,4.24
2023-02-23T21:50:17.750Z,4.26
2023-02-23T21:52:44.937Z,4.33
2023-02-23T21:55:20.768Z,4.26
2023-02-23T21:57:47.822Z,4.23
2023-02-23T22:00:14.495Z,4.27
2023-02-23T22:02:40.962Z,4.35
2023-02-23T22:05:10.647Z,4.27
2023-02-23T22:07:37.057Z,4.22
2023-02-23T22:10:04.055Z,4.18
2023-02-23T22:12:30.481Z,4.24
2023-02-23T22:14:57.233Z,4.21
2023-02-23T22:17:23.662Z,4.18
2023-02-23T22:19:50.904Z,4.19
2023-02-23T22:22:17.478Z,4.23
2023-02-23T22:24:43.902Z,4.31
2023-02-23T22:27:10.345Z,4.28
2023-02-23T22:29:36.742Z,4.26
2023-02-23T22:32:03.270Z,4.23
2023-02-23T22:34:29.737Z,4.21
2023-02-23T22:36:56.166Z,4.20
2023-02-23T22:39:22.560Z,4.21
2023-02-23T22:41:48.982Z,4.25
2023-02-23T22:44:19.484Z,4.22
2023-02-23T22:46:47.392Z,4.19
2023-02-23T22:49:13.904Z,4.15
2023-02-23T22:51:40.335Z,4.18
2023-02-23T22:54:06.915Z,4.16
2023-02-23T22:56:33.748Z,4.15
2023-02-23T22:59:00.295Z,4.12
2023-02-23T23:01:26.704Z,4.13
2023-02-23T23:03:53.105Z,4.09
2023-02-23T23:06:19.826Z,3.98
2023-02-23T23:08:46.220Z,3.95
2023-02-23T23:11:14.378Z,4.00
2023-02-23T23:13:45.695Z,4.06
2023-02-23T23:16:22.262Z,4.07
2023-02-23T23:18:59.266Z,4.00
2023-02-23T23:21:25.643Z,3.99
2023-02-23T23:23:54.862Z,4.12
2023-02-23T23:26:21.884Z,4.11
2023-02-23T23:28:52.988Z,4.06
2023-02-23T23:31:22.003Z,3.99
2023-02-23T23:33:52.265Z,3.94
2023-02-23T23:36:20.169Z,3.91
2023-02-23T23:38:46.624Z,3.85
2023-02-23T23:41:13.117Z,3.92
2023-02-23T23:43:43.500Z,3.93
2023-02-23T23:46:09.906Z,3.94
2023-02-23T23:48:36.414Z,3.95
2023-02-23T23:51:03.122Z,3.95
2023-02-23T23:53:29.542Z,3.93
2023-02-23T23:55:55.936Z,3.91
2023-02-23T23:58:22.356Z,3.94
